EDDSLOWI

Guest
Details From EDDS - Stuttgart
To LOWI - Innsbruck Kranebitten
Flight Number -
Tags generated
Created
Modified
Stats Distance 121 nm / 224 km
Max Altitude 4,800 ft / 1,463 m
Waypoints 3
Social Downloads 0
Likes 0
Share VATSIM

Download

Looking for another format? Having issues loading an existing format? Contact us
Advertisement - Login to hide

Notes

Basic altitude profile: - Ascent Rate: 2500ft/min - Ascent Speed: 250kts - Cruise Altitude: 35000ft - Cruise Speed: 420kts - Descent Rate: 1500ft/min - Descent Speed: 250kts Options: - Use NATs: yes - Use PACOTS: yes - Use low airways: no - Use high airways: yes

Route

EDDS SUDEN LOWI

ID Type Via Altitude Latitude Longitude Leg Dist Tot Dist Heading (true) Name
O EDDS APT - 0 ft / 0 m 48.68988˚ 9.22196˚ - 0 nm - Stuttgart
SUDEN FIX - 4,800 ft / 1,463 m 48.52917˚ 9.46222˚ 13 nm 13 nm 135° / 135° -
O LOWI APT - 0 ft / 0 m 47.26023˚ 11.34397˚ 107 nm 121 nm 134° / 136° Innsbruck Kranebitten

Altitude Profile

Advertisement - Login to hide

EDDS

Details ICAO EDDS (STR)
Name Stuttgart
Region Germany - Civil
Timezone Europe/Berlin (UTC+1.0)
Stats Elevation 1,273 ft / 388 m (AMSL)
Location 48.689876° 9.221962°
Runways 1
Magnetic Variation 2.525° E

METAR

EDDS 181950Z VRB02KT 9999 FEW007 OVC035 01/00 Q1026 R25/29//95 NOSIG

Decode

TAF

TAF TAF EDDS 181700Z 1818/1918 VRB03KT 9999 SCT012 BKN020 TEMPO 1900/1910 3500 -SN FEW007 BKN010 PROB30 TEMPO 1910/1916 4000 -RASN BKN008

Decode

Departure Runways

ID Width Length Bearing (true) Bearing (mag) Surface Threshold Offset Overrun Length
07 148 ft / 45 m 10,950 ft / 3,337 m 73.96° 71.44° Concrete 981 ft / 299 m 157 ft / 48 m
25 148 ft / 45 m 10,950 ft / 3,337 m 253.99° 251.47° Concrete 0 ft / 0 m 157 ft / 48 m

LOWI

Details ICAO LOWI (INN)
Name Innsbruck Kranebitten
Region Austria
Timezone Europe/Vienna (UTC+1.0)
Stats Elevation 1,906 ft / 581 m (AMSL)
Location 47.260226° 11.343967°
Runways 1
Magnetic Variation 3.020° E

METAR

LOWI 181950Z VRB01KT 9999 BKN065 M03/M05 Q1026 NOSIG

Decode

TAF

TAF LOWI 181715Z 1818/1918 27004KT 9999 FEW015 SCT050 BKN070 TXM01/1913Z TNM04/1907Z PROB30 1822/1909 3000 BR BKN010 TEMPO 1910/1917 08005KT SCT070

Decode

Destination Runways

ID Width Length Bearing (true) Bearing (mag) Surface Threshold Offset Overrun Length
08 148 ft / 45 m 6,545 ft / 1,995 m 81.02° 78.00° Asphalt 338 ft / 103 m 0 ft / 0 m
26 148 ft / 45 m 6,545 ft / 1,995 m 261.04° 258.02° Asphalt 0 ft / 0 m 0 ft / 0 m

Approach Navaids

Runway Type Ident Frequency Range Bearing (true) Bearing (mag) Slope Elevation
26 Localiser OEV 111.10 MHz 27 nm / 50 km 256.00° 252.98° - 1,906 ft / 581 m (AMSL)
26 Localiser OEJ 109.70 MHz 30 nm / 56 km 69.00° 65.98° - 1,906 ft / 581 m (AMSL)
26 Glidescope OEV 111.10 MHz 18 nm / 33 km 256.00° 252.98° 3.80° 1,911 ft / 582 m (AMSL)
26 DME OEJ 109.70 MHz 30 nm / 56 km - - - 1,906 ft / 581 m (AMSL)
26 DME OEV 111.10 MHz 27 nm / 50 km - - - 1,911 ft / 582 m (AMSL)

Popular Alternatives